Jackman, Maine
Current Conditions -  °F | °C
As of 9:00 AM on Wednesday 28 Jan 2015 (Local Time) from CYSC Reporting Station
Light Snow Light Snow  
Wind Chill: -24°   Ceiling: 9000
Heat Index: -15°   Visibility: 9mi
Dew Point: -18°   Wind: 13mph
Humidity: 78%   Direction: 300°WNW
Pressure: 30.02"   Gusts: NA
Location:  45.62°N, 70.25°W
Report Text: CYSC 281400Z AUTO 30011KT 9SM -SN FEW044 BKN090 M15/M18 A3002 RMK SLP186
Loading
Personal Weather Stations






























Interactive Weather Map New forecast layout! Learn more

10-Day Weather Forecast

Advertisements
Track Severe Weather on mobile